createdAt,value
2022-09-14T00:02:20.289Z,10.80
2022-09-14T00:07:22.784Z,6.40
2022-09-14T00:12:26.557Z,6.68
2022-09-14T00:17:28.995Z,5.53
2022-09-14T00:22:31.388Z,7.50
2022-09-14T00:27:35.126Z,9.32
2022-09-14T00:32:38.537Z,8.10
2022-09-14T00:42:44.565Z,8.52
2022-09-14T00:47:48.677Z,10.23
2022-09-14T00:52:51.555Z,6.90
2022-09-14T00:57:55.377Z,13.07
2022-09-14T01:02:58.199Z,9.10
2022-09-14T01:08:16.174Z,11.52
2022-09-14T01:13:28.922Z,9.25
2022-09-14T01:18:35.426Z,6.18
2022-09-14T01:23:41.823Z,13.82
2022-09-14T01:28:48.323Z,10.25
2022-09-14T01:33:54.113Z,7.45
2022-09-14T01:38:56.716Z,10.98
2022-09-14T01:44:03.183Z,9.67
2022-09-14T01:49:11.046Z,10.38
2022-09-14T01:54:17.165Z,10.90
2022-09-14T01:59:22.994Z,9.98
2022-09-14T02:04:28.506Z,7.50
2022-09-14T02:09:30.977Z,9.13
2022-09-14T02:14:36.270Z,11.98
2022-09-14T02:19:47.700Z,8.48
2022-09-14T02:24:50.905Z,10.95
2022-09-14T02:29:55.746Z,9.75
2022-09-14T02:35:01.018Z,9.10
2022-09-14T02:40:07.248Z,10.05
2022-09-14T02:45:19.013Z,9.73
2022-09-14T02:50:23.409Z,7.05
2022-09-14T02:55:29.368Z,10.18
2022-09-14T03:00:35.062Z,9.23
2022-09-14T03:05:38.090Z,12.05
2022-09-14T03:10:42.854Z,7.28
2022-09-14T03:15:46.861Z,9.73
2022-09-14T03:20:49.409Z,8.93
2022-09-14T03:25:51.808Z,6.23
2022-09-14T03:30:55.705Z,8.73
2022-09-14T03:35:59.346Z,10.65
2022-09-14T03:41:01.881Z,12.55
2022-09-14T03:46:09.195Z,13.30
2022-09-14T03:51:14.065Z,7.22
2022-09-14T03:56:17.575Z,7.25
2022-09-14T04:01:22.017Z,7.18
2022-09-14T04:06:26.062Z,11.80
2022-09-14T04:11:31.334Z,19.70
2022-09-14T04:16:35.140Z,7.65
2022-09-14T04:21:37.527Z,7.95
2022-09-14T04:26:39.935Z,10.35
2022-09-14T04:31:43.815Z,8.15
2022-09-14T04:36:46.284Z,8.80
2022-09-14T04:41:48.726Z,11.53
2022-09-14T04:46:52.812Z,7.27
2022-09-14T04:51:55.338Z,10.52
2022-09-14T04:56:57.800Z,6.67
2022-09-14T05:02:01.569Z,9.00
2022-09-14T05:07:04.096Z,8.48
2022-09-14T05:12:06.795Z,7.57
2022-09-14T05:17:11.063Z,5.45
2022-09-14T05:22:14.547Z,9.82
2022-09-14T05:27:17.001Z,5.07
2022-09-14T05:32:20.717Z,8.30
2022-09-14T05:37:23.122Z,6.40
2022-09-14T05:42:25.512Z,6.65
2022-09-14T05:47:31.143Z,6.50
2022-09-14T05:52:33.538Z,8.07
2022-09-14T05:57:35.988Z,5.85
2022-09-14T06:02:39.755Z,6.57
2022-09-14T06:07:42.250Z,10.00
2022-09-14T06:12:44.730Z,7.77
2022-09-14T06:17:48.555Z,9.90
2022-09-14T06:22:51.666Z,6.57
2022-09-14T06:27:54.994Z,9.50
2022-09-14T06:38:01.006Z,5.60
2022-09-14T06:43:03.485Z,7.93
2022-09-14T06:48:05.885Z,6.57
2022-09-14T06:53:09.613Z,5.10
2022-09-14T06:58:13.190Z,7.60
2022-09-14T07:03:15.673Z,8.63
2022-09-14T07:08:19.446Z,6.07
2022-09-14T07:13:21.985Z,10.77
2022-09-14T07:18:28.343Z,8.33
2022-09-14T07:23:33.696Z,8.10
2022-09-14T07:28:36.801Z,7.20
2022-09-14T07:38:58.283Z,9.52
2022-09-14T07:44:01.563Z,9.73
2022-09-14T07:49:04.893Z,9.25
2022-09-14T07:54:09.683Z,7.32
2022-09-14T08:04:35.769Z,11.40
2022-09-14T08:09:39.840Z,7.47
2022-09-14T08:14:42.277Z,10.20
2022-09-14T08:19:45.805Z,8.43
2022-09-14T08:24:51.533Z,11.50
2022-09-14T08:29:55.398Z,9.57
2022-09-14T08:34:58.299Z,11.25
2022-09-14T08:40:02.157Z,8.98
2022-09-14T08:45:09.570Z,10.77
2022-09-14T08:50:13.676Z,10.20
2022-09-14T08:55:23.870Z,11.98
2022-09-14T09:00:28.522Z,4.65
2022-09-14T09:05:35.262Z,6.30
2022-09-14T09:10:40.085Z,7.75
2022-09-14T09:15:45.025Z,10.50
2022-09-14T09:20:49.117Z,5.78
2022-09-14T09:25:55.259Z,8.80
2022-09-14T09:30:59.465Z,7.75
2022-09-14T09:36:02.071Z,7.88
2022-09-14T09:41:15.038Z,5.05
2022-09-14T09:46:18.663Z,7.50
2022-09-14T09:51:27.873Z,7.13
2022-09-14T09:56:32.730Z,9.40
2022-09-14T10:01:36.176Z,6.10
2022-09-14T10:06:42.431Z,7.10
2022-09-14T10:11:46.501Z,9.18
2022-09-14T10:16:49.068Z,5.78
2022-09-14T10:22:05.557Z,5.40
2022-09-14T10:27:23.316Z,6.32
2022-09-14T10:32:28.005Z,7.43
2022-09-14T10:37:33.592Z,6.80
2022-09-14T10:42:38.838Z,6.65
2022-09-14T10:47:56.159Z,4.53
2022-09-14T10:53:07.232Z,5.05
2022-09-14T10:58:22.520Z,8.85
2022-09-14T11:03:31.704Z,7.40
2022-09-14T11:08:38.787Z,4.75
2022-09-14T11:13:47.018Z,9.23
2022-09-14T11:18:52.862Z,5.88
2022-09-14T11:23:57.852Z,10.45
2022-09-14T11:29:03.820Z,6.60
2022-09-14T11:34:10.506Z,3.50
2022-09-14T11:39:21.292Z,10.30
2022-09-14T11:44:25.642Z,3.50
2022-09-14T11:49:30.116Z,6.13
2022-09-14T11:54:34.114Z,3.15
2022-09-14T11:59:38.347Z,4.35
2022-09-14T12:05:00.750Z,6.55
2022-09-14T12:10:18.402Z,5.13
2022-09-14T12:15:34.650Z,3.20
2022-09-14T12:20:42.949Z,4.38
2022-09-14T12:25:56.512Z,4.47
2022-09-14T12:31:30.379Z,4.45
2022-09-14T12:36:51.959Z,5.95
2022-09-14T12:42:12.459Z,4.60
2022-09-14T12:47:35.651Z,3.70
2022-09-14T12:52:44.914Z,2.58
2022-09-14T12:57:51.118Z,4.95
2022-09-14T13:03:11.409Z,5.15
2022-09-14T13:08:19.626Z,4.57
2022-09-14T13:13:23.178Z,2.17
2022-09-14T13:18:33.090Z,2.40
2022-09-14T13:23:39.022Z,2.00
2022-09-14T13:28:43.070Z,3.58
2022-09-14T13:33:50.406Z,4.60
2022-09-14T13:38:55.055Z,4.88
2022-09-14T13:43:58.416Z,5.88
2022-09-14T13:49:00.847Z,3.42
2022-09-14T13:54:19.378Z,2.78
2022-09-14T13:59:22.639Z,5.85
2022-09-14T14:04:29.975Z,4.93
2022-09-14T14:09:42.571Z,3.47
2022-09-14T14:14:53.066Z,3.33
2022-09-14T14:19:56.545Z,3.22
2022-09-14T14:25:16.031Z,2.97
2022-09-14T14:30:19.548Z,4.95
2022-09-14T14:35:22.923Z,2.67
2022-09-14T14:40:28.179Z,4.60
2022-09-14T14:45:35.361Z,4.80
2022-09-14T14:50:39.074Z,2.58
2022-09-14T14:55:43.031Z,5.45
2022-09-14T15:00:45.762Z,5.88
2022-09-14T15:05:49.290Z,2.20
2022-09-14T15:10:57.772Z,3.67
2022-09-14T15:16:00.200Z,6.60
2022-09-14T15:26:06.324Z,3.28
2022-09-14T15:31:08.741Z,3.47
2022-09-14T15:36:11.243Z,4.57
2022-09-14T15:41:14.998Z,4.25
2022-09-14T15:46:17.379Z,3.78
2022-09-14T15:51:19.828Z,3.30
2022-09-14T15:56:23.585Z,6.00
2022-09-14T16:01:27.099Z,5.10
2022-09-14T16:06:29.701Z,2.78
2022-09-14T16:11:34.253Z,4.65
2022-09-14T16:16:37.562Z,5.30
2022-09-14T16:21:40.586Z,3.50
2022-09-14T16:26:44.926Z,5.68
2022-09-14T16:31:47.922Z,2.95
2022-09-14T16:36:50.418Z,2.20
2022-09-14T16:41:55.672Z,5.70
2022-09-14T16:46:59.090Z,3.65
2022-09-14T16:52:01.612Z,3.83
2022-09-14T16:57:05.437Z,3.50
2022-09-14T17:02:10.534Z,7.03
2022-09-14T17:07:13.160Z,4.28
2022-09-14T17:12:16.821Z,3.42
2022-09-14T17:17:19.215Z,4.43
2022-09-14T17:22:21.591Z,3.92
2022-09-14T17:27:25.830Z,6.40
2022-09-14T17:32:28.362Z,5.97
2022-09-14T17:37:31.042Z,3.53
2022-09-14T17:42:34.832Z,7.40
2022-09-14T17:47:37.402Z,6.97
2022-09-14T17:52:39.846Z,3.45
2022-09-14T17:57:43.641Z,6.57
2022-09-14T18:02:50.726Z,3.55
2022-09-14T18:07:53.077Z,4.07
2022-09-14T18:12:56.874Z,4.23
2022-09-14T18:17:59.590Z,5.15
2022-09-14T18:23:02.030Z,4.18
2022-09-14T18:28:05.779Z,3.57
2022-09-14T18:33:08.312Z,5.75
2022-09-14T18:38:11.986Z,5.68
2022-09-14T18:43:16.684Z,4.25
2022-09-14T18:48:20.038Z,5.38
2022-09-14T18:53:22.537Z,4.07
2022-09-14T18:58:26.876Z,3.30
2022-09-14T19:03:29.435Z,4.53
2022-09-14T19:08:31.876Z,5.28
2022-09-14T19:13:35.968Z,6.30
2022-09-14T19:18:38.894Z,4.93
2022-09-14T19:23:42.935Z,4.30
2022-09-14T19:28:46.679Z,6.28
2022-09-14T19:33:49.092Z,8.63
2022-09-14T19:38:53.931Z,7.27
2022-09-14T19:43:57.688Z,2.97
2022-09-14T19:49:00.092Z,6.00
2022-09-14T19:54:02.478Z,5.47
2022-09-14T19:59:07.207Z,4.37
2022-09-14T20:04:10.419Z,5.75
2022-09-14T20:14:18.110Z,4.32
2022-09-14T20:19:22.234Z,3.63
2022-09-14T20:24:26.266Z,1.83
2022-09-14T20:29:34.068Z,3.30
2022-09-14T20:34:36.452Z,1.92
2022-09-14T20:39:39.072Z,2.43
2022-09-14T20:44:42.790Z,4.77
2022-09-14T20:49:45.257Z,2.90
2022-09-14T20:54:47.679Z,3.00
2022-09-14T20:59:51.435Z,5.43
2022-09-14T21:04:53.807Z,3.58
2022-09-14T21:09:56.925Z,1.55
2022-09-14T21:15:00.631Z,5.20
2022-09-14T21:20:03.106Z,2.85
2022-09-14T21:25:06.025Z,3.27
2022-09-14T21:30:10.613Z,3.65
2022-09-14T21:35:12.996Z,3.55
2022-09-14T21:40:15.450Z,3.05
2022-09-14T21:45:19.302Z,4.53
2022-09-14T21:50:21.773Z,4.95
2022-09-14T21:55:24.290Z,8.05
2022-09-14T22:00:30.992Z,4.55
2022-09-14T22:05:33.493Z,6.68
2022-09-14T22:10:35.817Z,5.55
2022-09-14T22:15:39.627Z,6.10
2022-09-14T22:20:42.082Z,6.13
2022-09-14T22:25:44.528Z,8.07
2022-09-14T22:30:49.319Z,7.70
2022-09-14T22:35:53.025Z,9.23
2022-09-14T22:40:56.148Z,9.50
2022-09-14T22:45:59.957Z,12.95
2022-09-14T22:51:02.630Z,11.13
2022-09-14T22:56:08.857Z,9.37
2022-09-14T23:01:13.816Z,11.57
2022-09-14T23:06:16.323Z,8.43
2022-09-14T23:11:18.668Z,12.02
2022-09-14T23:16:25.908Z,12.55
2022-09-14T23:21:29.189Z,11.75
2022-09-14T23:26:31.663Z,14.40
2022-09-14T23:31:35.480Z,12.18
2022-09-14T23:36:37.938Z,10.25
2022-09-14T23:41:40.753Z,9.57
2022-09-14T23:46:44.468Z,9.35
2022-09-14T23:51:46.907Z,12.48
2022-09-14T23:56:49.347Z,7.75
